Time;durP1;ratioP1;P1;durP2;ratioP2;P2;SDS_P1;SDS_P2;PMS_P1;PMS_P2;Temp;Humidity;BMP_temperature;BMP_pressure;BME280_temperature;BME280_humidity;BME280_pressure;Samples;Min_cycle;Max_cycle;Signal;HPM_P1;HPM_P2
2021/05/25 00:01:09;;;;;;;2.37;1.35;;;;;;;14.05;78.48;102124.02;1750106;81;20944;-78
2021/05/25 00:03:36;;;;;;;4.62;1.45;;;;;;;14.04;78.44;102118.44;1752161;81;21075;-78
2021/05/25 00:06:03;;;;;;;2.42;1.17;;;;;;;14.02;78.54;102113.30;1753449;82;20916;-78
2021/05/25 00:08:31;;;;;;;3.15;1.27;;;;;;;14.01;78.38;102106.84;1753527;82;20920;-78
2021/05/25 00:10:59;;;;;;;2.65;1.12;;;;;;;13.94;78.26;102104.23;1753921;82;21008;-78
2021/05/25 00:13:26;;;;;;;5.05;1.35;;;;;;;13.90;78.55;102103.56;1753719;81;20960;-76
2021/05/25 00:15:53;;;;;;;5.05;1.60;;;;;;;13.88;79.05;102108.00;1751984;81;21115;-75
2021/05/25 00:18:21;;;;;;;2.80;1.70;;;;;;;13.86;78.98;102112.94;1749648;82;21645;-75
2021/05/25 00:20:48;;;;;;;2.15;1.55;;;;;;;13.83;78.80;102108.75;1749924;82;20991;-80
2021/05/25 00:23:15;;;;;;;2.40;1.30;;;;;;;13.81;78.68;102099.33;1750041;82;21253;-80
2021/05/25 00:25:44;;;;;;;3.33;1.40;;;;;;;13.75;78.67;102089.59;1749987;82;21806;-80
2021/05/25 00:28:11;;;;;;;4.20;1.50;;;;;;;13.74;78.91;102084.48;1749997;82;21068;-78
2021/05/25 00:30:38;;;;;;;2.77;1.60;;;;;;;13.72;79.02;102078.52;1749915;81;21007;-78
2021/05/25 00:33:05;;;;;;;2.35;1.70;;;;;;;13.71;79.21;102076.83;1749924;82;21067;-78
2021/05/25 00:35:39;;;;;;;2.90;1.70;;;;;;;13.68;79.19;102077.85;1749930;82;20924;-79
2021/05/25 00:38:03;;;;;;;2.47;1.60;;;;;;;13.67;79.33;102085.75;1749468;81;20924;-79
2021/05/25 00:40:29;;;;;;;4.03;1.72;;;;;;;13.66;79.59;102088.81;1750021;81;21069;-79
2021/05/25 00:42:57;;;;;;;5.25;1.70;;;;;;;13.69;79.84;102096.92;1749871;81;21244;-77
2021/05/25 00:45:24;;;;;;;6.15;1.50;;;;;;;13.72;79.79;102094.17;1749759;81;20944;-74
2021/05/25 00:47:51;;;;;;;2.00;1.30;;;;;;;13.74;79.69;102093.61;1750004;82;20940;-76
2021/05/25 00:50:28;;;;;;;2.25;1.72;;;;;;;13.75;79.60;102096.61;1749926;82;21016;-79
2021/05/25 00:53:01;;;;;;;3.75;1.60;;;;;;;13.77;79.61;102093.44;1749824;81;21721;-79
2021/05/25 00:55:35;;;;;;;3.85;1.65;;;;;;;13.75;79.69;102089.59;1749961;82;21111;-80
2021/05/25 00:58:06;;;;;;;4.00;1.70;;;;;;;13.76;79.69;102081.31;1749914;82;21502;-79
2021/05/25 01:00:39;;;;;;;4.92;1.77;;;;;;;13.76;79.57;102074.79;1750153;82;21004;-80
2021/05/25 01:03:07;;;;;;;4.30;2.00;;;;;;;13.77;79.75;102070.80;1750176;81;21469;-78
2021/05/25 01:05:36;;;;;;;3.37;1.67;;;;;;;13.77;79.82;102057.75;1749993;82;20865;-80
2021/05/25 01:08:04;;;;;;;5.12;2.00;;;;;;;13.75;79.84;102058.78;1749927;82;20960;-77
2021/05/25 01:10:36;;;;;;;3.05;1.75;;;;;;;13.74;80.21;102062.31;1749724;82;21107;-77
2021/05/25 01:13:18;;;;;;;2.02;1.20;;;;;;;13.75;80.01;102061.39;1749827;81;20996;-82
2021/05/25 01:15:45;;;;;;;2.58;1.52;;;;;;;13.76;79.72;102056.53;1749786;81;20928;-78
2021/05/25 01:18:13;;;;;;;2.47;1.30;;;;;;;13.75;79.93;102054.86;1750056;82;21072;-80
2021/05/25 01:20:46;;;;;;;5.17;1.40;;;;;;;13.75;79.96;102049.65;1749711;81;20928;-79
2021/05/25 01:23:14;;;;;;;2.60;1.30;;;;;;;13.74;80.01;102050.11;1750242;82;20936;-80
2021/05/25 01:25:44;;;;;;;3.12;1.10;;;;;;;13.75;79.88;102048.34;1749925;82;20924;-79
2021/05/25 01:28:11;;;;;;;3.30;1.40;;;;;;;13.74;79.73;102040.13;1750050;82;20980;-79
2021/05/25 01:30:41;;;;;;;1.45;1.20;;;;;;;13.75;79.72;102049.65;1749970;82;21078;-78
2021/05/25 01:33:08;;;;;;;2.05;1.55;;;;;;;13.74;79.63;102055.33;1749824;81;20964;-79
2021/05/25 01:35:35;;;;;;;3.37;1.22;;;;;;;13.75;79.69;102066.12;1749771;81;20999;-78
2021/05/25 01:38:05;;;;;;;2.05;1.37;;;;;;;13.79;79.71;102074.61;1749780;81;21629;-78
2021/05/25 01:40:34;;;;;;;3.25;1.70;;;;;;;13.82;79.82;102073.13;1749905;81;20976;-78
2021/05/25 01:43:01;;;;;;;6.22;2.10;;;;;;;13.86;79.66;102075.10;1749854;82;21154;-78
2021/05/25 01:45:30;;;;;;;3.12;2.75;;;;;;;13.88;79.71;102075.39;1750044;82;21003;-79
2021/05/25 01:47:59;;;;;;;5.47;2.65;;;;;;;13.91;80.00;102067.87;1749814;82;20999;-79
2021/05/25 01:50:26;;;;;;;5.87;3.55;;;;;;;13.91;79.71;102070.48;1749950;81;20948;-79
2021/05/25 01:53:07;;;;;;;4.25;3.30;;;;;;;13.89;79.59;102068.41;1749857;81;20889;-78
2021/05/25 01:55:37;;;;;;;5.10;3.40;;;;;;;13.89;79.47;102068.41;1749628;81;21029;-78
2021/05/25 01:58:09;;;;;;;5.75;3.47;;;;;;;13.88;79.47;102073.27;1749843;82;20944;-78
2021/05/25 02:00:37;;;;;;;3.77;3.33;;;;;;;13.87;79.73;102072.88;1749915;82;21581;-78
2021/05/25 02:03:05;;;;;;;8.00;3.10;;;;;;;13.89;79.50;102076.23;1749853;82;20912;-78
2021/05/25 02:05:32;;;;;;;4.47;2.77;;;;;;;13.88;79.61;102073.27;1749719;82;20960;-79
2021/05/25 02:07:59;;;;;;;4.37;2.40;;;;;;;13.87;80.07;102075.03;1749900;81;21080;-79
2021/05/25 02:10:37;;;;;;;3.58;2.47;;;;;;;13.89;79.96;102078.84;1749860;82;21573;-79
2021/05/25 02:13:15;;;;;;;5.17;2.60;;;;;;;13.90;79.87;102077.92;1747007;82;20936;-78
2021/05/25 02:15:43;;;;;;;3.40;2.37;;;;;;;13.90;79.86;102078.77;1749691;81;20908;-78
2021/05/25 02:18:19;;;;;;;4.05;2.30;;;;;;;13.88;79.71;102071.47;1749917;82;20944;-78
2021/05/25 02:20:48;;;;;;;4.25;2.17;;;;;;;13.85;79.86;102074.27;1749936;82;21098;-78
2021/05/25 02:23:14;;;;;;;2.52;2.10;;;;;;;13.81;79.99;102071.47;1749499;81;21506;-78
2021/05/25 02:25:42;;;;;;;3.60;2.37;;;;;;;13.77;80.20;102071.27;1749841;82;20905;-78
2021/05/25 02:28:09;;;;;;;3.60;2.25;;;;;;;13.72;80.30;102063.69;1749730;82;20979;-78
2021/05/25 02:30:37;;;;;;;3.50;2.30;;;;;;;13.68;80.56;102059.59;1749962;81;21019;-77
2021/05/25 02:33:08;;;;;;;4.72;2.50;;;;;;;13.64;80.75;102055.47;1750852;82;21081;-77
2021/05/25 02:35:36;;;;;;;5.07;2.53;;;;;;;13.59;80.81;102060.08;1753187;82;20964;-78
2021/05/25 02:38:04;;;;;;;5.15;1.90;;;;;;;13.55;81.17;102060.36;1752919;82;21003;-78
2021/05/25 02:40:31;;;;;;;5.80;2.15;;;;;;;13.52;81.20;102060.53;1753185;82;20916;-78
2021/05/25 02:42:59;;;;;;;2.75;2.10;;;;;;;13.48;81.40;102056.41;1752955;81;20996;-78
2021/05/25 02:45:27;;;;;;;3.22;2.37;;;;;;;13.44;81.55;102067.47;1753035;82;21155;-79
2021/05/25 02:47:54;;;;;;;3.05;2.50;;;;;;;13.42;81.86;102065.88;1750441;81;20917;-77
2021/05/25 02:50:21;;;;;;;5.22;2.25;;;;;;;13.39;82.17;102059.08;1749611;82;20956;-78
2021/05/25 02:52:51;;;;;;;2.42;2.05;;;;;;;13.38;82.38;102065.66;1749574;81;21641;-77
2021/05/25 02:55:24;;;;;;;7.12;2.92;;;;;;;13.39;82.58;102066.89;1749757;82;21003;-76
2021/05/25 02:57:51;;;;;;;5.15;2.55;;;;;;;13.39;82.60;102064.75;1749851;81;21015;-78
2021/05/25 03:00:22;;;;;;;5.55;2.90;;;;;;;13.38;82.75;102070.87;1749984;81;21003;-78
2021/05/25 03:02:51;;;;;;;4.03;2.50;;;;;;;13.38;83.03;102066.97;1749934;81;21418;-78
2021/05/25 03:05:22;;;;;;;3.35;2.40;;;;;;;13.41;83.50;102068.94;1749708;82;22117;-77
2021/05/25 03:07:52;;;;;;;4.53;3.08;;;;;;;13.41;83.20;102062.88;1749732;82;20952;-75
2021/05/25 03:10:21;;;;;;;8.15;2.75;;;;;;;13.38;83.06;102060.45;1749787;82;21082;-77
2021/05/25 03:12:48;;;;;;;4.50;2.40;;;;;;;13.34;83.02;102057.66;1749545;82;21083;-78
2021/05/25 03:15:19;;;;;;;5.22;2.80;;;;;;;13.32;83.07;102056.87;1749506;82;21629;-78
2021/05/25 03:17:46;;;;;;;4.78;2.30;;;;;;;13.28;83.19;102044.47;1750024;81;21072;-79
2021/05/25 03:20:15;;;;;;;2.65;2.08;;;;;;;13.25;83.08;102044.64;1750020;81;20892;-78
2021/05/25 03:22:42;;;;;;;5.15;2.30;;;;;;;13.22;83.05;102052.17;1749967;82;21677;-78
2021/05/25 03:25:11;;;;;;;3.85;2.15;;;;;;;13.22;83.12;102058.70;1749837;82;20976;-79
2021/05/25 03:27:38;;;;;;;3.85;2.00;;;;;;;13.24;83.29;102060.74;1749998;81;21004;-78
2021/05/25 03:30:12;;;;;;;3.27;2.35;;;;;;;13.26;83.03;102063.28;1749882;82;20963;-78
2021/05/25 03:32:39;;;;;;;3.65;2.35;;;;;;;13.30;83.06;102066.56;1749226;81;20897;-78
2021/05/25 03:35:09;;;;;;;3.55;2.90;;;;;;;13.32;83.20;102069.45;1749881;81;21091;-78
2021/05/25 03:37:36;;;;;;;3.25;2.37;;;;;;;13.34;83.24;102064.98;1755509;81;21070;-78
2021/05/25 03:40:06;;;;;;;6.97;3.62;;;;;;;13.35;83.35;102066.68;1758556;81;20916;-79
2021/05/25 03:42:34;;;;;;;10.95;5.75;;;;;;;13.39;83.43;102068.20;1758533;81;20940;-79
2021/05/25 03:45:01;;;;;;;9.10;6.28;;;;;;;13.44;83.55;102071.84;1758842;81;21018;-77
2021/05/25 03:47:28;;;;;;;8.23;6.10;;;;;;;13.50;83.58;102074.95;1758872;81;21067;-76
2021/05/25 03:50:06;;;;;;;9.23;6.67;;;;;;;13.56;83.52;102071.18;1758590;81;21576;-75
2021/05/25 03:52:24;;;;;;;10.13;7.62;;;;;;;13.61;83.63;102066.53;1692064;84;21002;-75
2021/05/25 03:54:58;;;;;;;10.40;8.15;;;;;;;13.66;83.77;102073.16;1755652;81;21019;-77
2021/05/25 03:59:49;;;;;;;8.70;6.65;;;;;;;13.78;83.57;102068.55;1717769;81;21102;-78
2021/05/25 04:02:17;;;;;;;9.03;6.08;;;;;;;13.86;83.62;102065.52;1750576;81;20967;-77
2021/05/25 04:04:43;;;;;;;8.43;5.40;;;;;;;13.94;83.63;102063.32;1755645;81;20948;-77
2021/05/25 04:07:12;;;;;;;7.58;4.70;;;;;;;14.01;83.50;102063.31;1755632;81;20976;-78
2021/05/25 04:09:41;;;;;;;9.85;4.30;;;;;;;14.07;83.52;102059.04;1755691;81;21616;-77
2021/05/25 04:12:09;;;;;;;8.25;4.37;;;;;;;14.14;83.40;102057.76;1755634;81;21895;-78
2021/05/25 04:14:37;;;;;;;8.28;4.53;;;;;;;14.22;83.21;102055.55;1755850;81;20944;-77
2021/05/25 04:17:05;;;;;;;5.28;3.80;;;;;;;14.32;83.15;102072.82;1755784;81;20979;-78
2021/05/25 04:19:33;;;;;;;4.58;3.22;;;;;;;14.39;83.04;102073.33;1755809;81;21497;-77
2021/05/25 04:22:00;;;;;;;5.90;3.67;;;;;;;14.47;82.81;102068.48;1755737;81;20971;-77
2021/05/25 04:24:27;;;;;;;6.15;3.30;;;;;;;14.54;82.50;102064.58;1755760;80;21489;-76
2021/05/25 04:26:54;;;;;;;5.35;3.00;;;;;;;14.64;82.29;102060.48;1755592;81;21558;-76
2021/05/25 04:29:21;;;;;;;4.33;2.80;;;;;;;14.72;82.13;102060.37;1755850;81;20952;-76
2021/05/25 04:31:48;;;;;;;5.55;2.58;;;;;;;14.83;82.00;102057.11;1755863;81;20932;-78
2021/05/25 04:34:15;;;;;;;5.00;2.83;;;;;;;14.90;81.89;102070.15;1755878;81;20988;-75
2021/05/25 04:36:42;;;;;;;6.10;3.27;;;;;;;14.98;81.75;102067.92;1755551;81;21090;-75
2021/05/25 04:39:10;;;;;;;12.33;3.10;;;;;;;15.05;81.75;102065.30;1754711;81;20964;-77
2021/05/25 04:41:37;;;;;;;5.95;2.90;;;;;;;15.13;81.63;102067.41;1754990;81;20924;-77
2021/05/25 04:44:04;;;;;;;7.87;2.98;;;;;;;15.20;81.37;102064.33;1754704;81;20988;-77
2021/05/25 04:46:33;;;;;;;7.97;3.17;;;;;;;15.29;81.03;102065.05;1755146;81;20897;-77
2021/05/25 04:49:00;;;;;;;13.83;3.72;;;;;;;15.37;80.88;102063.27;1754706;81;21478;-77
2021/05/25 04:51:27;;;;;;;11.20;3.65;;;;;;;15.45;80.62;102056.22;1754916;81;20944;-78
2021/05/25 04:53:55;;;;;;;4.42;3.00;;;;;;;15.50;80.23;102055.05;1754782;80;20924;-77
2021/05/25 04:56:22;;;;;;;13.32;3.52;;;;;;;15.59;79.77;102060.14;1754874;81;21011;-78
2021/05/25 04:58:49;;;;;;;5.40;2.85;;;;;;;15.65;79.38;102056.66;1754935;81;20984;-79
2021/05/25 05:01:17;;;;;;;8.10;2.75;;;;;;;15.73;79.08;102060.91;1754925;81;21107;-78
2021/05/25 05:03:45;;;;;;;6.12;2.85;;;;;;;15.82;78.50;102068.65;1754858;81;21470;-78
2021/05/25 05:06:12;;;;;;;4.78;1.92;;;;;;;15.89;77.93;102064.20;1754962;81;21573;-76
2021/05/25 05:08:43;;;;;;;6.40;2.10;;;;;;;15.97;77.07;102067.63;1755490;81;20976;-78
2021/05/25 05:11:09;;;;;;;5.33;2.12;;;;;;;16.04;76.07;102069.38;1757833;81;20964;-77
2021/05/25 05:13:38;;;;;;;4.67;1.77;;;;;;;16.09;75.23;102064.19;1758447;81;21048;-76
2021/05/25 05:16:07;;;;;;;6.58;2.08;;;;;;;16.14;74.76;102064.73;1757210;81;20873;-75
2021/05/25 05:18:34;;;;;;;5.22;1.80;;;;;;;16.22;74.56;102073.38;1758358;81;21315;-78
2021/05/25 05:21:01;;;;;;;8.90;1.75;;;;;;;16.29;73.95;102074.64;1757679;81;21030;-78
2021/05/25 05:23:29;;;;;;;3.62;1.80;;;;;;;16.37;73.26;102080.19;1757245;81;20928;-76
2021/05/25 05:25:56;;;;;;;5.72;1.80;;;;;;;16.46;72.51;102082.68;1755297;81;21083;-78
2021/05/25 05:28:23;;;;;;;9.85;1.77;;;;;;;16.53;71.86;102083.45;1754777;80;21051;-79
2021/05/25 05:30:49;;;;;;;3.47;1.45;;;;;;;16.60;70.97;102087.36;1754905;80;21036;-77
2021/05/25 05:33:16;;;;;;;9.15;1.30;;;;;;;16.66;69.77;102083.47;1754829;81;20972;-80
2021/05/25 05:35:43;;;;;;;9.10;1.40;;;;;;;16.73;68.72;102082.11;1754783;81;21510;-79
2021/05/25 05:38:11;;;;;;;2.15;1.12;;;;;;;16.78;67.51;102093.95;1751824;81;21680;-76
2021/05/25 05:40:40;;;;;;;1.87;1.20;;;;;;;16.84;66.96;102096.17;1749753;80;21012;-80
2021/05/25 05:43:07;;;;;;;3.92;1.20;;;;;;;16.92;66.01;102099.55;1750019;82;20980;-75
2021/05/25 05:45:34;;;;;;;3.12;1.05;;;;;;;16.97;65.49;102090.91;1749701;80;21744;-77
2021/05/25 05:48:01;;;;;;;2.90;1.10;;;;;;;17.02;64.97;102080.08;1749970;82;21003;-82
2021/05/25 05:50:30;;;;;;;5.67;1.55;;;;;;;17.05;65.06;102078.55;1749946;82;22039;-77
2021/05/25 05:52:57;;;;;;;7.20;1.65;;;;;;;17.07;65.11;102072.24;1749731;82;20896;-82
2021/05/25 05:55:25;;;;;;;11.57;1.60;;;;;;;17.10;65.66;102066.81;1749441;80;20956;-81
2021/05/25 05:57:53;;;;;;;10.25;1.52;;;;;;;17.16;65.92;102070.77;1732057;81;21566;-80
2021/05/25 06:00:22;;;;;;;5.83;1.37;;;;;;;17.22;65.92;102069.02;1736977;80;21056;-85
2021/05/25 06:02:51;;;;;;;5.87;1.80;;;;;;;17.28;66.11;102064.17;1736387;81;21009;-76
2021/05/25 06:05:19;;;;;;;2.90;1.55;;;;;;;17.34;65.41;102065.04;1747492;80;21025;-79
2021/05/25 06:07:49;;;;;;;2.33;1.10;;;;;;;17.40;65.43;102065.06;1748141;80;20893;-80
2021/05/25 06:10:17;;;;;;;1.98;1.02;;;;;;;17.44;64.74;102062.59;1748165;80;21025;-82
2021/05/25 06:12:44;;;;;;;1.72;1.05;;;;;;;17.49;64.44;102063.08;1748246;80;20957;-78
2021/05/25 06:15:12;;;;;;;2.67;1.02;;;;;;;17.52;64.57;102072.04;1747941;80;21096;-78
2021/05/25 06:17:39;;;;;;;3.08;1.20;;;;;;;17.55;64.58;102082.34;1748156;80;20988;-74
2021/05/25 06:20:08;;;;;;;1.98;1.27;;;;;;;17.59;64.19;102077.25;1747906;80;20957;-78
2021/05/25 06:22:35;;;;;;;3.12;1.10;;;;;;;17.63;63.52;102076.08;1748119;80;20929;-72
2021/05/25 06:25:03;;;;;;;3.50;1.50;;;;;;;17.69;62.96;102071.69;1748169;80;21068;-80
2021/05/25 06:27:30;;;;;;;4.80;1.22;;;;;;;17.74;62.29;102073.48;1748411;80;21083;-77
2021/05/25 06:29:58;;;;;;;3.60;1.47;;;;;;;17.80;62.11;102082.25;1748082;80;21024;-75
2021/05/25 06:32:25;;;;;;;5.55;1.42;;;;;;;17.86;62.04;102078.33;1748171;82;20921;-76
2021/05/25 06:34:54;;;;;;;4.78;1.50;;;;;;;17.91;62.16;102084.06;1748144;80;20918;-79
2021/05/25 06:37:22;;;;;;;3.35;1.35;;;;;;;17.97;61.75;102081.83;1698961;80;21101;-78
2021/05/25 06:39:50;;;;;;;4.35;1.05;;;;;;;18.03;61.76;102068.70;1754324;80;21152;-81
2021/05/25 06:42:17;;;;;;;2.30;1.20;;;;;;;18.09;59.84;102064.33;1754068;80;21086;-79
2021/05/25 06:44:45;;;;;;;1.95;1.12;;;;;;;18.15;59.26;102076.16;1754007;80;21115;-78
2021/05/25 06:47:12;;;;;;;3.05;1.10;;;;;;;18.20;58.60;102073.53;1754042;81;21123;-79
2021/05/25 06:49:39;;;;;;;1.90;1.17;;;;;;;18.22;57.67;102075.55;1754150;80;21523;-81
2021/05/25 06:52:34;;;;;;;3.37;1.17;;;;;;;18.24;56.76;102067.10;1756079;81;21128;-86
2021/05/25 06:55:25;;;;;;;2.70;1.02;;;;;;;18.31;57.38;102056.96;1707388;81;21650;-78
2021/05/25 06:58:38;;;;;;;1.90;1.10;;;;;;;18.38;57.45;102053.72;1730681;81;21103;-75
2021/05/25 07:01:45;;;;;;;1.85;1.05;;;;;;;18.44;56.77;102051.13;1723081;81;22322;-77
2021/05/25 07:04:37;;;;;;;1.42;0.80;;;;;;;18.50;56.57;102050.69;1729362;81;21009;-77
2021/05/25 07:08:22;;;;;;;3.17;1.35;;;;;;;18.59;56.02;102052.59;1644018;87;21441;-79
2021/05/25 07:38:04;;;;;;;8.03;1.40;;;;;;;18.94;55.51;102049.36;1646806;87;21089;-74
2021/05/25 07:40:48;;;;;;;1.85;1.20;;;;;;;19.02;55.37;102042.15;1620724;87;21774;-76
2021/05/25 07:43:44;;;;;;;1.95;1.25;;;;;;;19.13;55.24;102025.52;1648266;83;20947;-73
2021/05/25 07:46:23;;;;;;;1.90;1.40;;;;;;;19.24;54.51;102025.00;1676118;85;21341;-76
2021/05/25 07:48:54;;;;;;;2.70;1.35;;;;;;;19.35;54.23;102037.30;1683673;83;21033;-79
2021/05/25 07:51:21;;;;;;;2.90;1.30;;;;;;;19.48;53.38;102055.96;1684588;83;21013;-72
2021/05/25 07:53:50;;;;;;;1.42;1.10;;;;;;;19.55;52.14;102047.09;1684545;83;21049;-80
2021/05/25 07:56:17;;;;;;;2.10;1.30;;;;;;;19.56;52.31;102040.84;1684579;83;21129;-79
2021/05/25 07:58:45;;;;;;;1.82;1.20;;;;;;;19.60;52.37;102030.41;1684619;85;21719;-75
2021/05/25 08:02:04;;;;;;;2.58;1.20;;;;;;;19.65;51.84;102040.58;1684273;84;21094;-72
2021/05/25 08:09:16;;;;;;;2.12;1.05;;;;;;;19.73;49.29;102033.71;1684485;85;21643;-75
2021/05/25 08:11:52;;;;;;;2.20;1.37;;;;;;;19.75;47.97;102037.05;1684400;83;21691;-74
2021/05/25 08:14:37;;;;;;;2.08;1.10;;;;;;;19.83;48.64;102025.41;1684273;85;21382;-82
2021/05/25 08:20:17;;;;;;;1.60;0.88;;;;;;;20.18;47.69;102047.95;1684778;85;21183;-73
2021/05/25 08:23:27;;;;;;;;;;;;;;;20.21;46.38;102049.85;1687356;85;21583;-75
2021/05/25 08:25:54;;;;;;;1.07;0.90;;;;;;;20.18;46.56;102041.36;1655191;84;20296;-76
2021/05/25 08:28:22;;;;;;;3.15;1.00;;;;;;;20.20;46.15;102040.27;1727208;82;21113;-76
2021/05/25 08:30:54;;;;;;;0.85;0.70;;;;;;;20.18;46.14;102042.20;1726916;81;21097;-74
2021/05/25 08:33:51;;;;;;;3.58;0.93;;;;;;;20.18;45.70;102036.09;1726913;81;21106;-73
2021/05/25 08:36:23;;;;;;;3.45;1.00;;;;;;;20.21;46.51;102036.67;1683962;84;21900;-74
2021/05/25 08:38:50;;;;;;;1.82;0.90;;;;;;;20.25;47.54;102041.20;1683928;84;21132;-73
2021/05/25 08:41:18;;;;;;;1.95;0.90;;;;;;;20.31;47.49;102039.39;1688844;84;21143;-77
2021/05/25 08:43:45;;;;;;;2.27;0.88;;;;;;;20.33;47.92;102030.86;1688826;84;21132;-75
2021/05/25 08:47:01;;;;;;;1.07;0.90;;;;;;;20.42;48.69;102012.45;1689394;84;21016;-77
2021/05/25 08:49:30;;;;;;;1.25;0.72;;;;;;;20.54;48.64;101998.70;1689306;84;20993;-74
2021/05/25 08:52:00;;;;;;;1.00;0.70;;;;;;;20.68;49.20;101993.05;1689191;84;21060;-77
2021/05/25 08:54:30;;;;;;;0.60;0.50;;;;;;;20.84;48.65;101991.21;1682732;84;21166;-73
2021/05/25 08:56:57;;;;;;;2.35;0.70;;;;;;;20.92;44.74;101984.79;1688865;83;21200;-77
2021/05/25 08:59:25;;;;;;;0.60;0.60;;;;;;;20.92;44.40;101984.79;1689270;84;21017;-73
2021/05/25 09:01:52;;;;;;;1.25;0.70;;;;;;;20.99;42.47;101975.36;1689163;84;21606;-73
2021/05/25 09:04:19;;;;;;;1.65;0.68;;;;;;;21.07;42.27;101967.58;1689377;84;21563;-74
2021/05/25 09:06:49;;;;;;;1.20;0.70;;;;;;;21.05;41.83;101967.73;1688922;84;22335;-74
2021/05/25 09:09:20;;;;;;;0.68;0.53;;;;;;;21.08;41.87;101950.30;1688764;84;21198;-76
2021/05/25 09:12:03;;;;;;;0.68;0.60;;;;;;;21.12;40.23;101944.30;1705674;83;21156;-77
2021/05/25 09:14:49;;;;;;;0.93;0.53;;;;;;;21.10;41.29;101948.86;1739293;81;37933;-71
2021/05/25 09:17:24;;;;;;;0.78;0.65;;;;;;;21.19;40.79;101951.17;1626977;88;21155;-74
2021/05/25 09:19:55;;;;;;;1.98;0.62;;;;;;;21.18;41.95;101946.86;1676493;83;21099;-72
2021/05/25 09:22:34;;;;;;;0.72;0.60;;;;;;;21.23;40.85;101945.94;1663650;83;21129;-71
2021/05/25 09:25:09;;;;;;;1.72;0.68;;;;;;;21.13;41.23;101943.30;1686501;85;21619;-75
2021/05/25 09:27:41;;;;;;;0.57;0.57;;;;;;;21.14;41.53;101946.30;1686163;85;21644;-76
2021/05/25 09:30:23;;;;;;;0.80;0.80;;;;;;;21.28;42.29;101947.70;1686379;85;21735;-86
2021/05/25 09:33:01;;;;;;;0.90;0.70;;;;;;;21.41;41.69;101933.73;1686148;84;21792;-74
2021/05/25 09:35:35;;;;;;;0.65;0.62;;;;;;;21.58;42.24;101911.86;1713606;83;21204;-78
2021/05/25 09:38:27;;;;;;;4.05;1.30;;;;;;;21.80;42.37;101904.92;1721852;83;21021;-73
2021/05/25 09:41:00;;;;;;;2.30;0.60;;;;;;;21.99;42.47;101892.16;1730584;82;21615;-72
2021/05/25 09:43:30;;;;;;;1.60;0.55;;;;;;;22.20;41.86;101887.97;1733922;81;21066;-75
2021/05/25 09:46:12;;;;;;;1.30;0.50;;;;;;;22.26;41.91;101889.55;1697217;84;21112;-82
2021/05/25 09:48:48;;;;;;;0.88;0.50;;;;;;;22.30;41.33;101879.50;1695964;84;21152;-75
2021/05/25 09:51:28;;;;;;;6.45;2.22;;;;;;;22.28;41.46;101877.48;1697440;84;21116;-76
2021/05/25 09:53:56;;;;;;;1.70;0.90;;;;;;;22.28;40.94;101874.34;1696590;84;21180;-73
2021/05/25 09:56:30;;;;;;;3.62;0.75;;;;;;;22.57;40.33;101867.08;1695867;83;20984;-74
2021/05/25 09:58:59;;;;;;;;;;;;;;;23.32;39.37;101871.58;1698350;82;21092;-76
2021/05/25 10:01:37;;;;;;;2.00;0.70;;;;;;;24.01;35.26;101868.86;1715779;83;20172;-76
2021/05/25 10:04:14;;;;;;;0.80;0.47;;;;;;;24.22;34.99;101860.02;1725943;83;21157;-80
2021/05/25 10:06:44;;;;;;;2.60;0.70;;;;;;;24.39;34.04;101850.28;1725794;81;21150;-78
2021/05/25 10:09:12;;;;;;;1.45;0.50;;;;;;;25.07;33.00;101842.93;1725916;83;21599;-76
2021/05/25 10:12:02;;;;;;;0.40;0.40;;;;;;;25.97;32.27;101827.13;1725601;81;21129;-74
2021/05/25 10:14:31;;;;;;;1.50;0.78;;;;;;;26.89;32.09;101820.42;1725221;83;21085;-74
2021/05/25 10:17:01;;;;;;;4.15;0.70;;;;;;;27.15;30.74;101808.03;1695329;82;21052;-76
2021/05/25 10:19:28;;;;;;;2.60;0.70;;;;;;;27.09;32.04;101790.11;1695565;84;21040;-76
2021/05/25 10:21:57;;;;;;;1.57;0.65;;;;;;;27.32;30.67;101780.18;1695003;82;21118;-75
2021/05/25 10:24:25;;;;;;;1.07;0.60;;;;;;;27.81;30.43;101759.95;1695089;82;21126;-75
2021/05/25 10:26:52;;;;;;;2.52;1.07;;;;;;;28.35;30.81;101754.19;1695288;83;21116;-75
2021/05/25 10:29:19;;;;;;;2.37;0.90;;;;;;;28.33;30.83;101754.91;1695391;84;21081;-75
2021/05/25 10:31:49;;;;;;;2.22;0.80;;;;;;;28.19;31.26;101761.11;1695091;84;21690;-73
2021/05/25 10:34:21;;;;;;;6.70;1.10;;;;;;;27.93;31.48;101762.95;1676096;84;21040;-75
2021/05/25 10:36:53;;;;;;;;;;;;;;;27.68;32.47;101759.80;1697687;82;21796;-80
2021/05/25 10:39:33;;;;;;;3.58;0.90;;;;;;;27.35;34.09;101749.98;1715326;83;20160;-74
2021/05/25 10:42:26;;;;;;;1.10;0.70;;;;;;;26.81;33.53;101749.89;1663054;86;21116;-70
2021/05/25 10:45:13;;;;;;;2.62;0.78;;;;;;;26.41;34.06;101763.02;1638470;84;21156;-77
2021/05/25 10:48:00;;;;;;;4.53;1.10;;;;;;;26.16;34.78;101773.52;1699142;84;21193;-70
2021/05/25 10:50:32;;;;;;;2.90;0.90;;;;;;;25.92;34.34;101774.43;1699354;84;21150;-74
2021/05/25 10:53:06;;;;;;;4.58;1.12;;;;;;;25.89;35.95;101760.66;1698374;84;21029;-78
2021/05/25 10:55:38;;;;;;;3.90;0.80;;;;;;;25.92;35.44;101764.29;1662616;85;21132;-73
2021/05/25 10:58:35;;;;;;;2.02;0.72;;;;;;;25.95;35.71;101766.59;1698955;84;21139;-74
2021/05/25 11:01:08;;;;;;;2.22;0.90;;;;;;;25.81;35.82;101759.37;1662654;84;21041;-73
2021/05/25 11:03:35;;;;;;;3.20;0.78;;;;;;;25.41;37.36;101764.31;1699241;83;21084;-74
2021/05/25 11:06:58;;;;;;;2.70;0.90;;;;;;;25.33;38.37;101791.75;1698800;84;21768;-74
2021/05/25 11:09:29;;;;;;;1.42;0.88;;;;;;;25.24;38.10;101794.07;1698986;84;21045;-72
2021/05/25 11:12:15;;;;;;;5.47;0.80;;;;;;;24.90;39.61;101778.85;1699092;84;21633;-74
2021/05/25 11:15:15;;;;;;;6.72;1.20;;;;;;;24.83;39.66;101780.52;1698970;84;21084;-76
2021/05/25 11:17:46;;;;;;;2.40;1.07;;;;;;;24.51;40.77;101799.88;1698775;83;21653;-76
2021/05/25 11:20:54;;;;;;;1.32;0.90;;;;;;;24.39;41.61;101803.36;1671762;84;21684;-73
2021/05/25 11:27:19;;;;;;;1.07;0.85;;;;;;;24.27;42.04;101796.70;1698773;83;21714;-75
2021/05/25 11:29:59;;;;;;;3.62;0.98;;;;;;;24.17;42.00;101788.89;1699035;83;21152;-77
2021/05/25 11:32:30;;;;;;;2.00;0.75;;;;;;;24.11;42.91;101786.89;1699181;83;21056;-69
2021/05/25 11:35:11;;;;;;;3.22;1.10;;;;;;;24.26;43.30;101783.59;1699181;84;21698;-80
2021/05/25 11:37:42;;;;;;;3.95;1.05;;;;;;;24.34;43.24;101787.11;1663041;86;21739;-75
2021/05/25 11:40:12;;;;;;;4.70;1.20;;;;;;;24.19;43.04;101770.98;1703178;83;21248;-71
2021/05/25 11:42:45;;;;;;;2.62;0.90;;;;;;;24.01;43.50;101770.74;1724650;82;21070;-71
2021/05/25 11:45:14;;;;;;;2.92;0.80;;;;;;;23.92;43.42;101773.04;1724697;83;21175;-69
2021/05/25 11:47:41;;;;;;;1.98;0.95;;;;;;;23.75;43.87;101766.84;1725589;83;21018;-72
2021/05/25 11:50:15;;;;;;;3.12;0.90;;;;;;;23.75;44.38;101754.08;1693636;84;20993;-74
2021/05/25 11:52:43;;;;;;;2.95;0.70;;;;;;;23.61;42.38;101741.77;1693701;83;21615;-74
2021/05/25 11:55:15;;;;;;;3.17;1.20;;;;;;;23.41;43.44;101746.16;1693669;84;21041;-72
2021/05/25 11:57:52;;;;;;;1.87;0.78;;;;;;;23.26;43.25;101740.60;1693131;83;21148;-72
2021/05/25 12:00:28;;;;;;;2.12;1.00;;;;;;;23.19;42.74;101728.48;1692145;84;21069;-68
2021/05/25 12:02:58;;;;;;;3.27;0.70;;;;;;;23.12;42.53;101718.17;1691455;83;21613;-70
2021/05/25 12:05:45;;;;;;;2.50;0.75;;;;;;;23.12;43.75;101713.37;1691965;84;21088;-70
2021/05/25 12:08:12;;;;;;;2.50;0.68;;;;;;;23.24;43.06;101707.30;1692334;84;21773;-68
2021/05/25 12:10:44;;;;;;;2.37;0.90;;;;;;;23.29;42.88;101692.61;1691968;84;21188;-71
2021/05/25 12:13:14;;;;;;;3.98;1.00;;;;;;;23.32;43.27;101676.89;1692036;83;21088;-70
2021/05/25 12:15:48;;;;;;;1.57;0.90;;;;;;;23.34;44.08;101684.17;1691681;84;21080;-72
2021/05/25 12:18:19;;;;;;;1.35;0.80;;;;;;;23.34;44.96;101681.03;1692099;83;21721;-74
2021/05/25 12:20:54;;;;;;;2.22;0.93;;;;;;;23.33;46.26;101679.36;1692030;84;21104;-72
2021/05/25 12:23:27;;;;;;;2.02;1.02;;;;;;;23.24;47.62;101684.78;1692307;84;21093;-75
2021/05/25 12:25:55;;;;;;;3.27;0.85;;;;;;;23.18;48.44;101684.92;1692036;84;21115;-71
2021/05/25 12:28:46;;;;;;;;;;;;;;;;;;;;;
2021/05/25 12:31:31;;;;;;;2.55;0.98;;;;;;;23.12;49.08;101678.45;1689487;84;21092;-75